Time;durP1;ratioP1;P1;durP2;ratioP2;P2;SDS_P1;SDS_P2;PMS_P1;PMS_P2;Temp;Humidity;BMP_temperature;BMP_pressure;BME280_temperature;BME280_humidity;BME280_pressure;Samples;Min_cycle;Max_cycle;Signal;HPM_P1;HPM_P2
2023/04/29 00:00:01;;;;;;;4.20;3.72;;;;;;;;;;5093309;28;20458;-76
2023/04/29 00:02:27;;;;;;;5.85;4.40;;;;;;;;;;5092416;28;20024;-76
2023/04/29 00:04:53;;;;;;;5.32;4.15;;;;;;;;;;5089304;28;20024;-76
2023/04/29 00:07:21;;;;;;;6.88;3.70;;;;;;;;;;5089116;28;20028;-76
2023/04/29 00:09:47;;;;;;;3.97;3.15;;;;;;;;;;5088966;28;20286;-75
2023/04/29 00:12:13;;;;;;;7.57;4.05;;;;;;;;;;5089200;28;20472;-75
2023/04/29 00:14:39;;;;;;;7.03;3.92;;;;;;;;;;5088799;28;20275;-76
2023/04/29 00:17:05;;;;;;;3.97;3.38;;;;;;;;;;5093326;28;20496;-76
2023/04/29 00:19:31;;;;;;;11.80;5.40;;;;;;;;;;5091803;28;20024;-76
2023/04/29 00:21:57;;;;;;;15.90;5.97;;;;;;;;;;5092685;28;20079;-77
2023/04/29 00:24:26;;;;;;;8.02;5.07;;;;;;;;;;5094597;28;20115;-76
2023/04/29 00:26:55;;;;;;;;;;;;;;;;;;5094294;28;20043;-76
2023/04/29 00:29:22;;;;;;;5.43;3.87;;;;;;;;;;5110301;28;19998;-76
2023/04/29 00:31:48;;;;;;;7.75;5.13;;;;;;;;;;5091345;28;20281;-75
2023/04/29 00:34:15;;;;;;;4.97;3.47;;;;;;;;;;5093305;28;20032;-76
2023/04/29 00:36:41;;;;;;;6.20;3.35;;;;;;;;;;5092890;28;20031;-76
2023/04/29 00:39:07;;;;;;;23.80;6.38;;;;;;;;;;5092783;28;20028;-76
2023/04/29 00:41:33;;;;;;;5.18;3.90;;;;;;;;;;5092864;28;20367;-75
2023/04/29 00:43:59;;;;;;;8.55;4.35;;;;;;;;;;5091057;28;20032;-75
2023/04/29 00:46:25;;;;;;;28.75;10.38;;;;;;;;;;5094557;28;20036;-76
2023/04/29 00:48:51;;;;;;;4.40;4.00;;;;;;;;;;5094576;28;20028;-76
2023/04/29 00:51:18;;;;;;;6.55;4.05;;;;;;;;;;5095791;28;20108;-76
2023/04/29 00:53:44;;;;;;;7.93;4.45;;;;;;;;;;5095651;28;20024;-76
2023/04/29 00:56:12;;;;;;;10.52;4.88;;;;;;;;;;5093417;28;20028;-75
2023/04/29 00:58:39;;;;;;;6.22;3.65;;;;;;;;;;5093556;28;20023;-75
2023/04/29 01:01:06;;;;;;;2.20;1.98;;;;;;;;;;5094705;28;20121;-76
2023/04/29 01:03:32;;;;;;;3.85;2.80;;;;;;;;;;5094494;28;20020;-76
2023/04/29 01:06:07;;;;;;;5.47;3.60;;;;;;;;;;5095570;28;20040;-75
2023/04/29 01:08:52;;;;;;;7.10;4.18;;;;;;;;;;5093959;28;20180;-75
2023/04/29 01:11:22;;;;;;;8.38;4.78;;;;;;;;;;5094579;28;20110;-76
2023/04/29 01:13:48;;;;;;;7.45;3.50;;;;;;;;;;5092201;28;20109;-76
2023/04/29 01:16:17;;;;;;;6.60;4.40;;;;;;;;;;5095956;28;20028;-75
2023/04/29 01:18:45;;;;;;;5.30;4.22;;;;;;;;;;5095967;28;20028;-75
2023/04/29 01:21:11;;;;;;;10.38;5.63;;;;;;;;;;5095578;28;20040;-75
2023/04/29 01:23:37;;;;;;;5.60;4.60;;;;;;;;;;5095099;28;20024;-75
2023/04/29 01:26:04;;;;;;;7.03;4.78;;;;;;;;;;5094739;28;20032;-75
2023/04/29 01:28:36;;;;;;;5.78;3.60;;;;;;;;;;5094032;28;20058;-75
2023/04/29 01:31:06;;;;;;;5.68;4.07;;;;;;;;;;5094821;28;20227;-75
2023/04/29 01:33:58;;;;;;;3.67;3.38;;;;;;;;;;5093644;28;20253;-75
2023/04/29 01:36:24;;;;;;;2.50;2.30;;;;;;;;;;5092457;28;20057;-75
2023/04/29 01:39:02;;;;;;;3.88;2.65;;;;;;;;;;5094098;28;20032;-75
2023/04/29 01:41:39;;;;;;;7.85;4.95;;;;;;;;;;5093955;28;20042;-75
2023/04/29 01:44:07;;;;;;;8.80;4.80;;;;;;;;;;5093922;28;20032;-75
2023/04/29 01:46:33;;;;;;;4.38;3.85;;;;;;;;;;5095244;28;20182;-76
2023/04/29 01:48:59;;;;;;;5.45;3.83;;;;;;;;;;5095273;28;20055;-75
2023/04/29 01:51:27;;;;;;;6.43;4.03;;;;;;;;;;5094105;28;20031;-75
2023/04/29 01:53:56;;;;;;;4.95;3.50;;;;;;;;;;5093531;28;20111;-75
2023/04/29 01:56:25;;;;;;;5.28;3.92;;;;;;;;;;5093800;28;20027;-75
2023/04/29 01:58:50;;;;;;;6.75;4.63;;;;;;;;;;5094877;28;20035;-75
2023/04/29 02:01:17;;;;;;;4.68;3.55;;;;;;;;;;5093256;28;20036;-76
2023/04/29 02:03:43;;;;;;;3.30;3.03;;;;;;;;;;5093055;28;20437;-76
2023/04/29 02:06:09;;;;;;;8.23;2.85;;;;;;;;;;5092999;28;20036;-75
2023/04/29 02:08:35;;;;;;;3.53;2.35;;;;;;;;;;5094749;28;20073;-76
2023/04/29 02:11:01;;;;;;;2.88;2.40;;;;;;;;;;5093834;28;20028;-76
2023/04/29 02:13:27;;;;;;;2.25;2.05;;;;;;;;;;5093570;28;20024;-76
2023/04/29 02:15:53;;;;;;;2.15;1.92;;;;;;;;;;5093541;28;20032;-76
2023/04/29 02:18:19;;;;;;;2.80;2.17;;;;;;;;;;5092176;28;20074;-76
2023/04/29 02:20:45;;;;;;;2.33;1.90;;;;;;;;;;5093053;28;20412;-75
2023/04/29 02:23:11;;;;;;;2.28;1.65;;;;;;;;;;5094087;28;20499;-76
2023/04/29 02:25:37;;;;;;;2.33;1.70;;;;;;;;;;5092595;28;20036;-76
2023/04/29 02:28:03;;;;;;;2.67;2.45;;;;;;;;;;5093467;28;20024;-76
2023/04/29 02:30:29;;;;;;;2.95;2.40;;;;;;;;;;5093639;28;20024;-75
2023/04/29 02:32:55;;;;;;;3.28;2.58;;;;;;;;;;5095100;28;20056;-76
2023/04/29 02:35:21;;;;;;;4.70;2.70;;;;;;;;;;5092647;28;20032;-75
2023/04/29 02:37:47;;;;;;;2.90;2.58;;;;;;;;;;5092907;28;20021;-76
2023/04/29 02:40:13;;;;;;;3.83;3.03;;;;;;;;;;5092730;28;20032;-76
2023/04/29 02:42:40;;;;;;;5.38;3.10;;;;;;;;;;5095227;28;20016;-76
2023/04/29 02:45:06;;;;;;;2.45;1.92;;;;;;;;;;5094335;28;20188;-76
2023/04/29 02:47:32;;;;;;;7.03;2.95;;;;;;;;;;5094279;28;20034;-76
2023/04/29 02:49:58;;;;;;;5.55;2.13;;;;;;;;;;5096793;28;20099;-77
2023/04/29 02:52:24;;;;;;;2.70;2.03;;;;;;;;;;5097087;28;20032;-77
2023/04/29 02:54:50;;;;;;;2.45;2.25;;;;;;;;;;5095916;28;20404;-77
2023/04/29 02:57:17;;;;;;;2.15;2.05;;;;;;;;;;5096966;28;20085;-77
2023/04/29 02:59:43;;;;;;;2.22;2.03;;;;;;;;;;5097201;28;20372;-76
2023/04/29 03:02:09;;;;;;;3.28;2.63;;;;;;;;;;5097459;28;20279;-76
2023/04/29 03:04:35;;;;;;;2.55;1.98;;;;;;;;;;5097958;28;20051;-76
2023/04/29 03:07:01;;;;;;;3.53;2.03;;;;;;;;;;5096486;28;20036;-76
2023/04/29 03:09:27;;;;;;;2.83;2.53;;;;;;;;;;5095149;28;20476;-76
2023/04/29 03:11:53;;;;;;;2.47;2.28;;;;;;;;;;5096710;28;20028;-76
2023/04/29 03:14:19;;;;;;;1.85;1.75;;;;;;;;;;5097026;28;20047;-76
2023/04/29 03:16:45;;;;;;;1.98;1.60;;;;;;;;;;5096146;28;20039;-76
2023/04/29 03:19:12;;;;;;;4.88;2.15;;;;;;;;;;5095276;28;20020;-76
2023/04/29 03:21:37;;;;;;;1.90;1.80;;;;;;;;;;5095665;28;20063;-76
2023/04/29 03:24:04;;;;;;;2.95;2.67;;;;;;;;;;5094100;28;20376;-76
2023/04/29 03:26:30;;;;;;;2.88;2.60;;;;;;;;;;5095643;28;20181;-76
2023/04/29 03:28:57;;;;;;;3.30;2.83;;;;;;;;;;5094693;28;20212;-76
2023/04/29 03:31:24;;;;;;;3.88;2.22;;;;;;;;;;5094550;28;20024;-76
2023/04/29 03:33:52;;;;;;;2.92;2.33;;;;;;;;;;5094803;28;20024;-75
2023/04/29 03:36:18;;;;;;;4.20;2.05;;;;;;;;;;5094031;28;20040;-76
2023/04/29 03:38:44;;;;;;;2.00;1.80;;;;;;;;;;5095364;28;20028;-76
2023/04/29 03:41:10;;;;;;;2.25;2.00;;;;;;;;;;5096090;28;20051;-76
2023/04/29 03:43:36;;;;;;;3.58;2.58;;;;;;;;;;5095105;28;20025;-75
2023/04/29 03:46:02;;;;;;;19.98;4.95;;;;;;;;;;5094849;28;20122;-75
2023/04/29 03:48:28;;;;;;;3.45;2.15;;;;;;;;;;5097858;28;20028;-76
2023/04/29 03:50:54;;;;;;;7.10;2.88;;;;;;;;;;5098415;28;20048;-76
2023/04/29 03:53:20;;;;;;;5.75;2.42;;;;;;;;;;5097397;28;20039;-76
2023/04/29 03:55:47;;;;;;;12.20;3.03;;;;;;;;;;5097515;28;20529;-75
2023/04/29 03:58:13;;;;;;;6.50;3.53;;;;;;;;;;5098362;28;20457;-75
2023/04/29 04:00:39;;;;;;;2.63;2.42;;;;;;;;;;5100703;28;20031;-75
2023/04/29 04:03:05;;;;;;;2.35;2.15;;;;;;;;;;5100946;28;20028;-75
2023/04/29 04:05:31;;;;;;;2.70;2.50;;;;;;;;;;5101367;28;20452;-75
2023/04/29 04:07:59;;;;;;;2.15;2.05;;;;;;;;;;5102568;28;20374;-75
2023/04/29 04:10:27;;;;;;;2.30;2.10;;;;;;;;;;5101996;28;20016;-75
2023/04/29 04:12:55;;;;;;;5.00;1.65;;;;;;;;;;5101343;28;20102;-75
2023/04/29 04:15:21;;;;;;;6.60;3.33;;;;;;;;;;5093495;28;20261;-74
2023/04/29 04:17:47;;;;;;;7.30;3.05;;;;;;;;;;5096299;28;20024;-75
2023/04/29 04:20:13;;;;;;;2.53;2.28;;;;;;;;;;5093520;28;20050;-76
2023/04/29 04:22:39;;;;;;;7.45;2.88;;;;;;;;;;5085584;28;20032;-75
2023/04/29 04:25:06;;;;;;;8.07;2.38;;;;;;;;;;5071003;28;20021;-74
2023/04/29 04:27:32;;;;;;;5.47;2.05;;;;;;;;;;5078172;28;20062;-75
2023/04/29 04:29:58;;;;;;;1.88;1.75;;;;;;;;;;5088392;28;20048;-75
2023/04/29 04:32:24;;;;;;;5.28;1.75;;;;;;;;;;5089318;28;20032;-76
2023/04/29 04:34:50;;;;;;;1.92;1.50;;;;;;;;;;5089822;28;20525;-75
2023/04/29 04:37:16;;;;;;;2.20;1.98;;;;;;;;;;5088752;28;20055;-76
2023/04/29 04:39:42;;;;;;;1.75;1.65;;;;;;;;;;5088541;28;20063;-75
2023/04/29 04:42:08;;;;;;;2.67;2.47;;;;;;;;;;5088842;28;20035;-75
2023/04/29 04:44:34;;;;;;;8.15;3.25;;;;;;;;;;5089222;28;20032;-74
2023/04/29 04:47:01;;;;;;;13.02;3.97;;;;;;;;;;5090230;28;21171;-75
2023/04/29 04:49:27;;;;;;;16.42;2.80;;;;;;;;;;5090840;28;20069;-75
2023/04/29 04:51:53;;;;;;;7.38;1.85;;;;;;;;;;5097439;28;20097;-75
2023/04/29 04:54:19;;;;;;;4.07;2.45;;;;;;;;;;5095328;28;20020;-75
2023/04/29 04:56:47;;;;;;;6.55;2.00;;;;;;;;;;5090763;28;20043;-75
2023/04/29 04:59:13;;;;;;;8.20;2.05;;;;;;;;;;5091811;28;20020;-76
2023/04/29 05:01:39;;;;;;;1.65;1.55;;;;;;;;;;5091649;28;20038;-75
2023/04/29 05:04:05;;;;;;;3.08;1.63;;;;;;;;;;5091987;28;20028;-76
2023/04/29 05:06:31;;;;;;;2.28;2.08;;;;;;;;;;5093175;28;20036;-76
2023/04/29 05:08:57;;;;;;;1.42;1.33;;;;;;;;;;5093036;28;20032;-74
2023/04/29 05:11:23;;;;;;;1.25;1.15;;;;;;;;;;5092908;28;20020;-75
2023/04/29 05:13:50;;;;;;;1.90;1.50;;;;;;;;;;5091923;28;20035;-75
2023/04/29 05:16:16;;;;;;;1.85;1.55;;;;;;;;;;5083158;28;20029;-75
2023/04/29 05:18:45;;;;;;;2.05;1.88;;;;;;;;;;5073929;28;20456;-76
2023/04/29 05:21:11;;;;;;;1.88;1.60;;;;;;;;;;5073047;28;20517;-75
2023/04/29 05:23:37;;;;;;;1.65;1.55;;;;;;;;;;5071764;28;20435;-76
2023/04/29 05:26:03;;;;;;;1.73;1.60;;;;;;;;;;5073965;28;20102;-75
2023/04/29 05:28:29;;;;;;;2.13;1.90;;;;;;;;;;5074946;28;20508;-76
2023/04/29 05:30:56;;;;;;;2.88;1.83;;;;;;;;;;5072884;28;20020;-76
2023/04/29 05:33:22;;;;;;;2.97;2.17;;;;;;;;;;5069133;28;20023;-76
2023/04/29 05:35:48;;;;;;;2.38;2.17;;;;;;;;;;5067884;28;20020;-76
2023/04/29 05:38:14;;;;;;;2.17;2.03;;;;;;;;;;5068296;28;20082;-76
2023/04/29 05:40:40;;;;;;;2.90;2.33;;;;;;;;;;5070233;28;20028;-75
2023/04/29 05:43:06;;;;;;;2.75;2.33;;;;;;;;;;5069370;28;20424;-76
2023/04/29 05:45:32;;;;;;;2.08;1.80;;;;;;;;;;5067537;28;20039;-76
2023/04/29 05:47:58;;;;;;;2.40;1.75;;;;;;;;;;5068145;28;20016;-76
2023/04/29 05:50:24;;;;;;;1.70;1.60;;;;;;;;;;5069907;28;20094;-76
2023/04/29 05:52:50;;;;;;;2.42;1.35;;;;;;;;;;5068331;28;20024;-76
2023/04/29 05:55:16;;;;;;;2.33;2.13;;;;;;;;;;5066103;28;20086;-76
2023/04/29 05:57:42;;;;;;;1.77;1.67;;;;;;;;;;5065905;28;20515;-75
2023/04/29 06:00:09;;;;;;;3.08;2.47;;;;;;;;;;5067668;28;20621;-75
2023/04/29 06:02:35;;;;;;;2.08;1.98;;;;;;;;;;5066753;28;20035;-75
2023/04/29 06:05:01;;;;;;;3.20;1.85;;;;;;;;;;5080601;28;20033;-75
2023/04/29 06:07:27;;;;;;;3.80;2.08;;;;;;;;;;5065685;28;20020;-75
2023/04/29 06:09:53;;;;;;;1.50;1.45;;;;;;;;;;5065050;28;20172;-78
2023/04/29 06:12:19;;;;;;;1.52;1.42;;;;;;;;;;5065300;28;20039;-75
2023/04/29 06:14:45;;;;;;;2.08;1.58;;;;;;;;;;5080919;28;20031;-76
2023/04/29 06:17:12;;;;;;;2.78;1.20;;;;;;;;;;5083435;28;20028;-75
2023/04/29 06:19:38;;;;;;;1.30;1.08;;;;;;;;;;5086271;28;20027;-76
2023/04/29 06:22:04;;;;;;;2.00;0.90;;;;;;;;;;5085935;28;20040;-76
2023/04/29 06:24:30;;;;;;;5.55;1.48;;;;;;;;;;5085075;28;20080;-76
2023/04/29 06:26:56;;;;;;;1.67;1.58;;;;;;;;;;5085343;28;20245;-76
2023/04/29 06:29:22;;;;;;;0.98;0.98;;;;;;;;;;5085122;28;20032;-76
2023/04/29 06:31:48;;;;;;;1.85;0.90;;;;;;;;;;5085412;28;20020;-76
2023/04/29 06:34:14;;;;;;;1.35;1.25;;;;;;;;;;5085606;28;20016;-75
2023/04/29 06:36:40;;;;;;;1.38;0.88;;;;;;;;;;5086926;28;20031;-75
2023/04/29 06:39:06;;;;;;;1.92;1.00;;;;;;;;;;5085797;28;20032;-75
2023/04/29 06:41:33;;;;;;;1.27;1.15;;;;;;;;;;5087145;28;20039;-76
2023/04/29 06:43:59;;;;;;;1.52;1.33;;;;;;;;;;5087812;28;20065;-77
2023/04/29 06:46:26;;;;;;;2.72;1.20;;;;;;;;;;5090784;28;20040;-76
2023/04/29 06:48:52;;;;;;;1.02;0.88;;;;;;;;;;5100582;28;20020;-76
2023/04/29 06:51:18;;;;;;;1.88;0.90;;;;;;;;;;5100140;28;20024;-76
2023/04/29 06:53:45;;;;;;;2.85;1.20;;;;;;;;;;5092128;28;20141;-77
2023/04/29 06:56:11;;;;;;;2.60;1.10;;;;;;;;;;5080556;28;20035;-77
2023/04/29 06:58:38;;;;;;;2.38;1.23;;;;;;;;;;5079025;28;20215;-77
2023/04/29 07:01:06;;;;;;;2.08;0.77;;;;;;;;;;5077481;28;20029;-76
2023/04/29 07:03:31;;;;;;;3.47;0.95;;;;;;;;;;5097558;28;20020;-77
2023/04/29 07:05:57;;;;;;;4.55;0.90;;;;;;;;;;5087496;28;20464;-77
2023/04/29 07:08:24;;;;;;;5.82;1.67;;;;;;;;;;5093674;28;20020;-76
2023/04/29 07:10:54;;;;;;;0.90;0.90;;;;;;;;;;5097008;28;20024;-77
2023/04/29 07:13:20;;;;;;;0.75;0.75;;;;;;;;;;5095618;28;20033;-75
2023/04/29 07:15:46;;;;;;;5.40;1.33;;;;;;;;;;5089326;28;20020;-76
2023/04/29 07:18:12;;;;;;;0.93;0.70;;;;;;;;;;5096829;28;20027;-76
2023/04/29 07:20:38;;;;;;;3.33;1.08;;;;;;;;;;5097033;28;20051;-77
2023/04/29 07:23:04;;;;;;;2.05;0.90;;;;;;;;;;5094975;28;20019;-76
2023/04/29 07:25:30;;;;;;;0.88;0.88;;;;;;;;;;5093967;28;20043;-75
2023/04/29 07:27:56;;;;;;;0.90;0.90;;;;;;;;;;5097664;28;20036;-77
2023/04/29 07:30:22;;;;;;;4.45;2.35;;;;;;;;;;5096564;28;20020;-75
2023/04/29 07:32:49;;;;;;;6.18;3.58;;;;;;;;;;5100130;28;20028;-76
2023/04/29 07:35:14;;;;;;;4.07;3.30;;;;;;;;;;5116167;28;20110;-75
2023/04/29 07:37:42;;;;;;;5.85;4.28;;;;;;;;;;5100279;28;20024;-76
2023/04/29 07:40:08;;;;;;;4.53;3.58;;;;;;;;;;5098435;28;20106;-76
2023/04/29 07:42:34;;;;;;;5.78;4.57;;;;;;;;;;5098470;28;20083;-76
2023/04/29 07:45:00;;;;;;;4.65;4.05;;;;;;;;;;5095314;28;20228;-77
2023/04/29 07:47:27;;;;;;;5.63;3.92;;;;;;;;;;5098815;28;20039;-76
2023/04/29 07:49:53;;;;;;;6.97;5.38;;;;;;;;;;5095773;28;20065;-76
2023/04/29 07:52:19;;;;;;;6.20;5.07;;;;;;;;;;5079414;28;20022;-77
2023/04/29 07:54:45;;;;;;;6.40;4.65;;;;;;;;;;5094369;28;20020;-76
2023/04/29 07:57:11;;;;;;;6.63;4.88;;;;;;;;;;5105491;28;20243;-75
2023/04/29 07:59:37;;;;;;;5.47;3.92;;;;;;;;;;5090966;28;20039;-76
2023/04/29 08:02:03;;;;;;;6.93;4.03;;;;;;;;;;5092693;28;20043;-76
2023/04/29 08:04:29;;;;;;;5.32;3.45;;;;;;;;;;5090743;28;20035;-76
2023/04/29 08:06:55;;;;;;;3.22;3.03;;;;;;;;;;5077574;28;20279;-75
2023/04/29 08:09:21;;;;;;;2.45;2.33;;;;;;;;;;5077195;28;20021;-75
2023/04/29 08:11:47;;;;;;;3.58;2.10;;;;;;;;;;5092040;28;20032;-74
2023/04/29 08:14:13;;;;;;;2.25;2.05;;;;;;;;;;5096809;28;20016;-75
2023/04/29 08:16:40;;;;;;;2.97;2.20;;;;;;;;;;5098810;28;20019;-75
2023/04/29 08:19:06;;;;;;;4.32;2.40;;;;;;;;;;5099564;28;20024;-76
2023/04/29 08:21:33;;;;;;;3.35;2.35;;;;;;;;;;5094259;28;20048;-76
2023/04/29 08:23:59;;;;;;;3.08;2.22;;;;;;;;;;5099201;28;20270;-76
2023/04/29 08:26:26;;;;;;;2.47;2.22;;;;;;;;;;5094159;28;20036;-75
2023/04/29 08:28:52;;;;;;;4.53;1.88;;;;;;;;;;5095505;28;20016;-75
2023/04/29 08:31:19;;;;;;;2.42;2.13;;;;;;;;;;5097135;28;20028;-75
2023/04/29 08:33:45;;;;;;;2.15;1.85;;;;;;;;;;5096835;28;20012;-75
2023/04/29 08:36:14;;;;;;;2.38;2.17;;;;;;;;;;5102121;28;20050;-76
2023/04/29 08:38:40;;;;;;;4.38;2.40;;;;;;;;;;5102595;28;20020;-75
2023/04/29 08:41:09;;;;;;;4.80;2.17;;;;;;;;;;5101172;28;20036;-75
2023/04/29 08:43:36;;;;;;;2.13;2.00;;;;;;;;;;5099445;28;20065;-74
2023/04/29 08:46:03;;;;;;;2.97;2.30;;;;;;;;;;5101598;28;20064;-74
2023/04/29 08:48:29;;;;;;;3.88;1.73;;;;;;;;;;5105086;28;20027;-76
2023/04/29 08:50:57;;;;;;;2.35;1.88;;;;;;;;;;5100144;28;20580;-75
2023/04/29 08:53:23;;;;;;;2.55;2.00;;;;;;;;;;5104048;28;20053;-76
2023/04/29 08:55:49;;;;;;;1.98;1.88;;;;;;;;;;5097405;28;20028;-75
2023/04/29 08:58:16;;;;;;;2.80;2.10;;;;;;;;;;5094415;28;20035;-75
2023/04/29 09:00:42;;;;;;;2.10;2.00;;;;;;;;;;5092155;28;20016;-76
2023/04/29 09:03:12;;;;;;;2.97;2.60;;;;;;;;;;5092680;28;20115;-75
2023/04/29 09:05:40;;;;;;;4.35;1.95;;;;;;;;;;5091345;28;20040;-74
2023/04/29 09:08:07;;;;;;;2.40;1.67;;;;;;;;;;5091642;28;20039;-75
2023/04/29 09:10:35;;;;;;;2.65;2.25;;;;;;;;;;5090926;28;20035;-75
2023/04/29 09:13:01;;;;;;;2.92;2.10;;;;;;;;;;5090831;28;20069;-75
2023/04/29 09:15:28;;;;;;;4.47;2.35;;;;;;;;;;5088532;28;20036;-74
2023/04/29 09:17:54;;;;;;;2.40;2.30;;;;;;;;;;5090451;28;20016;-74
2023/04/29 09:20:20;;;;;;;3.33;1.98;;;;;;;;;;5090533;28;20062;-74
2023/04/29 09:22:50;;;;;;;2.55;2.15;;;;;;;;;;5090963;28;20097;-75
2023/04/29 09:25:16;;;;;;;1.98;1.55;;;;;;;;;;5096865;28;20524;-75
2023/04/29 09:27:42;;;;;;;2.22;2.00;;;;;;;;;;5094178;28;20051;-75
2023/04/29 09:30:09;;;;;;;6.15;2.60;;;;;;;;;;5091536;28;20037;-74
2023/04/29 09:32:35;;;;;;;2.63;2.42;;;;;;;;;;5092373;28;20062;-74
2023/04/29 09:35:20;;;;;;;2.90;2.67;;;;;;;;;;5092139;28;20028;-74
2023/04/29 09:37:46;;;;;;;3.55;3.00;;;;;;;;;;5091471;28;20042;-75
2023/04/29 09:40:29;;;;;;;5.38;2.58;;;;;;;;;;5090668;28;20429;-75
2023/04/29 09:42:58;;;;;;;3.60;2.80;;;;;;;;;;5088171;28;20028;-75
2023/04/29 09:45:34;;;;;;;2.65;2.45;;;;;;;;;;5090086;28;20043;-75
2023/04/29 09:48:04;;;;;;;2.90;2.60;;;;;;;;;;5094019;28;20024;-75
2023/04/29 09:50:31;;;;;;;7.38;3.47;;;;;;;;;;5091639;28;20020;-75
2023/04/29 09:52:57;;;;;;;4.20;3.25;;;;;;;;;;5092826;28;20373;-75
2023/04/29 09:55:23;;;;;;;4.35;3.17;;;;;;;;;;5092927;28;20392;-76
2023/04/29 09:57:49;;;;;;;3.53;3.20;;;;;;;;;;5093460;28;20050;-75
2023/04/29 10:00:16;;;;;;;6.82;3.17;;;;;;;;;;5089829;28;20016;-75
2023/04/29 10:02:42;;;;;;;3.42;3.13;;;;;;;;;;5092232;28;20058;-74
2023/04/29 10:05:09;;;;;;;2.90;2.63;;;;;;;;;;5091270;28;20024;-75
2023/04/29 10:07:39;;;;;;;4.07;3.28;;;;;;;;;;5090800;28;20027;-74
2023/04/29 10:10:05;;;;;;;;;;;;;;;;;;5092885;28;20103;-75
2023/04/29 10:12:32;;;;;;;4.45;3.20;;;;;;;;;;5092367;28;19947;-76
2023/04/29 10:15:02;;;;;;;3.70;3.40;;;;;;;;;;5090463;28;20415;-75
2023/04/29 10:17:44;;;;;;;4.07;3.45;;;;;;;;;;5069912;28;20013;-75
2023/04/29 10:20:15;;;;;;;5.00;3.50;;;;;;;;;;5079657;28;20567;-74
2023/04/29 10:22:46;;;;;;;4.30;3.30;;;;;;;;;;5082181;28;20024;-75
2023/04/29 10:25:14;;;;;;;2.95;2.55;;;;;;;;;;5071824;28;20287;-76
2023/04/29 10:27:43;;;;;;;3.30;3.00;;;;;;;;;;5071633;28;20050;-76
2023/04/29 10:30:11;;;;;;;5.95;3.08;;;;;;;;;;5093999;28;20082;-74
2023/04/29 10:32:40;;;;;;;4.07;3.13;;;;;;;;;;5106605;28;20208;-76
2023/04/29 10:35:08;;;;;;;3.47;2.95;;;;;;;;;;5097158;28;20307;-75
2023/04/29 10:37:35;;;;;;;3.20;2.30;;;;;;;;;;5090274;28;20023;-76
2023/04/29 10:40:19;;;;;;;4.80;2.35;;;;;;;;;;5086554;28;20024;-76
2023/04/29 10:42:49;;;;;;;3.58;2.22;;;;;;;;;;5084587;28;20035;-74
2023/04/29 10:45:26;;;;;;;2.70;2.50;;;;;;;;;;5085637;28;20119;-74
2023/04/29 10:48:07;;;;;;;3.20;2.55;;;;;;;;;;5109670;28;20370;-74
2023/04/29 10:50:49;;;;;;;1.88;1.77;;;;;;;;;;5089859;28;20020;-74
2023/04/29 10:53:16;;;;;;;2.65;2.30;;;;;;;;;;5087609;28;20089;-76
2023/04/29 10:55:42;;;;;;;2.63;2.20;;;;;;;;;;5085521;28;20042;-75
2023/04/29 10:58:27;;;;;;;4.65;2.17;;;;;;;;;;5085606;28;20028;-75
2023/04/29 11:00:53;;;;;;;3.55;2.33;;;;;;;;;;5091668;28;20494;-74
2023/04/29 11:03:38;;;;;;;2.75;2.55;;;;;;;;;;5096251;28;20083;-76
2023/04/29 11:06:10;;;;;;;2.83;2.28;;;;;;;;;;5091391;28;20042;-75
2023/04/29 11:08:40;;;;;;;4.63;2.40;;;;;;;;;;5091716;28;20016;-75
2023/04/29 11:11:06;;;;;;;5.88;1.90;;;;;;;;;;5091488;28;20107;-76
2023/04/29 11:13:37;;;;;;;2.33;2.17;;;;;;;;;;5094402;28;20131;-75
2023/04/29 11:16:06;;;;;;;3.45;2.20;;;;;;;;;;5093728;28;20083;-75
2023/04/29 11:18:33;;;;;;;4.07;2.15;;;;;;;;;;5096611;28;20027;-77
2023/04/29 11:21:05;;;;;;;2.30;1.95;;;;;;;;;;5096594;28;20086;-75
2023/04/29 11:23:43;;;;;;;3.65;2.03;;;;;;;;;;5096402;28;20153;-75
2023/04/29 11:26:09;;;;;;;5.43;2.22;;;;;;;;;;5098779;28;20084;-75
2023/04/29 11:28:35;;;;;;;2.17;1.88;;;;;;;;;;5094271;28;20035;-76
2023/04/29 11:31:02;;;;;;;2.30;2.10;;;;;;;;;;5095161;28;20024;-75
2023/04/29 11:33:31;;;;;;;6.43;1.77;;;;;;;;;;5100861;28;20069;-75
2023/04/29 11:35:57;;;;;;;1.92;1.83;;;;;;;;;;5102362;28;20113;-75
2023/04/29 11:38:24;;;;;;;2.47;2.22;;;;;;;;;;5101853;28;20020;-76
2023/04/29 11:40:50;;;;;;;1.77;1.63;;;;;;;;;;5094358;28;20024;-76
2023/04/29 11:43:17;;;;;;;1.58;1.48;;;;;;;;;;5096534;28;20372;-75
2023/04/29 11:45:45;;;;;;;5.05;1.67;;;;;;;;;;5100257;28;20320;-74
2023/04/29 11:48:17;;;;;;;5.25;1.70;;;;;;;;;;5098131;28;20039;-75
2023/04/29 11:50:43;;;;;;;2.47;2.20;;;;;;;;;;5092017;28;20027;-75
2023/04/29 11:53:09;;;;;;;5.00;2.10;;;;;;;;;;5094216;28;20039;-75
2023/04/29 11:55:35;;;;;;;2.50;2.30;;;;;;;;;;5102488;28;20022;-75
2023/04/29 11:58:03;;;;;;;3.13;2.70;;;;;;;;;;5101025;28;20336;-75
2023/04/29 12:00:30;;;;;;;3.47;2.22;;;;;;;;;;5099660;28;20065;-76
2023/04/29 12:02:57;;;;;;;3.28;2.53;;;;;;;;;;5099881;28;20111;-77
2023/04/29 12:05:27;;;;;;;5.53;2.80;;;;;;;;;;5099422;28;20039;-76
2023/04/29 12:07:54;;;;;;;3.83;2.58;;;;;;;;;;5101658;28;20027;-75
2023/04/29 12:10:20;;;;;;;3.75;2.50;;;;;;;;;;5105542;28;20012;-75
2023/04/29 12:12:47;;;;;;;3.17;2.42;;;;;;;;;;5106839;28;20028;-75
2023/04/29 12:15:13;;;;;;;2.88;2.50;;;;;;;;;;5104491;28;20075;-75
2023/04/29 12:17:40;;;;;;;3.42;2.25;;;;;;;;;;5105030;28;20039;-76
2023/04/29 12:20:09;;;;;;;3.05;2.85;;;;;;;;;;5094377;28;20024;-75
2023/04/29 12:22:35;;;;;;;4.03;2.80;;;;;;;;;;5089187;28;20234;-76
2023/04/29 12:25:04;;;;;;;3.20;2.90;;;;;;;;;;5087885;28;20064;-76
2023/04/29 12:27:31;;;;;;;2.55;2.35;;;;;;;;;;5088723;28;20367;-76
2023/04/29 12:29:57;;;;;;;4.00;2.00;;;;;;;;;;5084119;28;20016;-76
2023/04/29 12:32:24;;;;;;;2.85;2.45;;;;;;;;;;5084117;28;20281;-75
2023/04/29 12:34:51;;;;;;;2.72;2.50;;;;;;;;;;5086499;28;20099;-76
2023/04/29 12:37:17;;;;;;;2.97;2.63;;;;;;;;;;5085994;28;20024;-76
2023/04/29 12:39:44;;;;;;;2.42;2.20;;;;;;;;;;5084208;28;20021;-74
2023/04/29 12:42:16;;;;;;;7.38;2.63;;;;;;;;;;5100188;28;20091;-74
2023/04/29 12:44:45;;;;;;;2.10;1.90;;;;;;;;;;5099428;28;20014;-74
2023/04/29 12:47:12;;;;;;;4.03;2.00;;;;;;;;;;5085822;28;20185;-75
2023/04/29 12:49:42;;;;;;;2.08;1.98;;;;;;;;;;5083568;28;20013;-77
2023/04/29 12:52:09;;;;;;;4.35;2.00;;;;;;;;;;5083648;28;20016;-76
2023/04/29 12:54:36;;;;;;;5.43;1.73;;;;;;;;;;5084634;28;20100;-76
2023/04/29 12:57:03;;;;;;;2.65;1.92;;;;;;;;;;5099685;28;20027;-75
2023/04/29 12:59:29;;;;;;;4.65;2.65;;;;;;;;;;5083120;28;20012;-76
2023/04/29 13:01:55;;;;;;;3.25;2.05;;;;;;;;;;5083585;28;20091;-77
2023/04/29 13:04:21;;;;;;;2.55;2.35;;;;;;;;;;5084627;28;20028;-75
2023/04/29 13:06:47;;;;;;;4.40;2.30;;;;;;;;;;5084199;28;20417;-76
2023/04/29 13:09:13;;;;;;;4.95;2.38;;;;;;;;;;5099786;28;20024;-75
2023/04/29 13:11:39;;;;;;;4.18;1.80;;;;;;;;;;5083642;28;20024;-76
2023/04/29 13:14:05;;;;;;;3.22;2.33;;;;;;;;;;5099731;28;20024;-76
2023/04/29 13:16:35;;;;;;;2.55;2.20;;;;;;;;;;5083754;28;20083;-76
2023/04/29 13:19:01;;;;;;;2.28;1.98;;;;;;;;;;5084864;28;20020;-76
2023/04/29 13:21:28;;;;;;;2.25;2.10;;;;;;;;;;5083751;28;20347;-75
2023/04/29 13:23:54;;;;;;;2.38;1.92;;;;;;;;;;5086994;28;20016;-76
2023/04/29 13:26:20;;;;;;;4.55;1.92;;;;;;;;;;5087376;28;20374;-75
2023/04/29 13:28:46;;;;;;;2.33;2.03;;;;;;;;;;5097644;28;20122;-76
2023/04/29 13:31:15;;;;;;;2.00;1.90;;;;;;;;;;5098510;28;20036;-78
2023/04/29 13:33:42;;;;;;;3.95;1.85;;;;;;;;;;5083920;28;20029;-75
2023/04/29 13:36:11;;;;;;;4.72;2.42;;;;;;;;;;5102612;28;20017;-76
2023/04/29 13:38:37;;;;;;;3.53;2.20;;;;;;;;;;5083401;28;20028;-76
2023/04/29 13:41:03;;;;;;;4.43;2.28;;;;;;;;;;5100696;28;20031;-76
2023/04/29 13:43:29;;;;;;;2.17;1.98;;;;;;;;;;5084245;28;20040;-76
2023/04/29 13:45:55;;;;;;;3.85;2.78;;;;;;;;;;5103870;28;20061;-76
2023/04/29 13:48:22;;;;;;;2.47;2.28;;;;;;;;;;5096134;28;20103;-75
2023/04/29 13:50:48;;;;;;;6.00;2.53;;;;;;;;;;5097099;28;20111;-76
2023/04/29 13:53:17;;;;;;;3.17;2.40;;;;;;;;;;5098146;28;20017;-76
2023/04/29 13:55:43;;;;;;;2.65;2.45;;;;;;;;;;5096017;28;20024;-75
2023/04/29 13:58:09;;;;;;;3.38;2.42;;;;;;;;;;5091233;28;20030;-75
2023/04/29 14:00:35;;;;;;;2.83;2.53;;;;;;;;;;5104188;28;20020;-75
2023/04/29 14:03:02;;;;;;;2.25;1.80;;;;;;;;;;5120916;28;20027;-76
2023/04/29 14:05:28;;;;;;;2.40;2.20;;;;;;;;;;5105260;28;20244;-76
2023/04/29 14:07:54;;;;;;;6.03;2.47;;;;;;;;;;5103961;28;20024;-75
2023/04/29 14:10:20;;;;;;;4.90;2.65;;;;;;;;;;5120243;28;20050;-75
2023/04/29 14:12:47;;;;;;;2.78;2.25;;;;;;;;;;5103110;28;20024;-75
2023/04/29 14:15:14;;;;;;;5.63;2.08;;;;;;;;;;5104532;28;20376;-75
2023/04/29 14:17:40;;;;;;;9.27;3.05;;;;;;;;;;5104158;28;20027;-75
2023/04/29 14:20:06;;;;;;;4.00;2.55;;;;;;;;;;5105412;28;20023;-75
2023/04/29 14:22:32;;;;;;;3.75;2.40;;;;;;;;;;5119577;28;20032;-75
2023/04/29 14:24:58;;;;;;;4.57;2.03;;;;;;;;;;5117738;28;20118;-75
2023/04/29 14:27:25;;;;;;;6.32;2.30;;;;;;;;;;5103573;28;20073;-75
2023/04/29 14:29:52;;;;;;;3.58;1.95;;;;;;;;;;5119829;28;20332;-75
2023/04/29 14:32:18;;;;;;;3.47;2.47;;;;;;;;;;5102533;28;20069;-76
2023/04/29 14:34:44;;;;;;;2.80;2.60;;;;;;;;;;5118038;28;20024;-75
2023/04/29 14:37:10;;;;;;;2.92;2.30;;;;;;;;;;5117662;28;20039;-74
2023/04/29 14:39:36;;;;;;;2.35;2.15;;;;;;;;;;5098140;28;20016;-76
2023/04/29 14:42:03;;;;;;;5.05;2.30;;;;;;;;;;5096808;28;20415;-76